createdAt,value
2018-06-10T00:00:17.112Z,67.54
2018-06-10T00:02:45.300Z,68.67
2018-06-10T00:05:13.499Z,68.09
2018-06-10T00:07:41.745Z,68.18
2018-06-10T00:10:09.904Z,68.23
2018-06-10T00:12:38.161Z,69.12
2018-06-10T00:15:07.015Z,68.71
2018-06-10T00:17:35.349Z,68.57
2018-06-10T00:20:03.588Z,69.27
2018-06-10T00:22:31.876Z,69.08
2018-06-10T00:25:00.047Z,68.84
2018-06-10T00:27:28.332Z,69.28
2018-06-10T00:29:56.611Z,69.61
2018-06-10T00:32:24.870Z,69.49
2018-06-10T00:34:53.183Z,68.96
2018-06-10T00:37:21.428Z,69.08
2018-06-10T00:39:49.643Z,69.61
2018-06-10T00:42:17.805Z,69.11
2018-06-10T00:44:46.007Z,69.43
2018-06-10T00:47:14.294Z,69.56
2018-06-10T00:49:42.544Z,69.74
2018-06-10T00:52:10.757Z,69.35
2018-06-10T00:54:38.923Z,70.05
2018-06-10T00:57:07.197Z,71.38
2018-06-10T00:59:35.484Z,72.17
2018-06-10T01:02:03.788Z,71.79
2018-06-10T01:04:31.982Z,72.18
2018-06-10T01:07:00.576Z,72.21
2018-06-10T01:09:28.908Z,72.97
2018-06-10T01:11:57.131Z,72.00
2018-06-10T01:14:25.343Z,71.81
2018-06-10T01:16:53.549Z,72.04
2018-06-10T01:19:21.795Z,71.18
2018-06-10T01:21:50.025Z,71.63
2018-06-10T01:24:18.195Z,71.11
2018-06-10T01:26:50.263Z,71.08
2018-06-10T01:29:19.053Z,71.92
2018-06-10T01:31:47.218Z,71.28
2018-06-10T01:34:15.435Z,71.32
2018-06-10T01:36:43.651Z,71.44
2018-06-10T01:39:11.870Z,72.60
2018-06-10T01:41:40.051Z,73.11
2018-06-10T01:44:08.259Z,72.77
2018-06-10T01:46:36.461Z,72.80
2018-06-10T01:49:04.763Z,73.86
2018-06-10T01:51:32.949Z,74.00
2018-06-10T01:54:01.135Z,74.39
2018-06-10T01:56:29.365Z,73.83
2018-06-10T01:58:57.627Z,74.46
2018-06-10T02:01:25.786Z,74.60
2018-06-10T02:06:21.320Z,74.42
2018-06-10T02:08:49.535Z,75.45
2018-06-10T02:11:17.684Z,74.95
2018-06-10T02:13:46.052Z,75.66
2018-06-10T02:16:14.260Z,75.60
2018-06-10T02:18:42.800Z,75.62
2018-06-10T02:21:11.068Z,76.24
2018-06-10T02:23:39.293Z,76.68
2018-06-10T02:26:07.541Z,76.78
2018-06-10T02:28:35.753Z,76.40
2018-06-10T02:31:03.960Z,76.38
2018-06-10T02:33:32.308Z,76.41
2018-06-10T02:36:00.512Z,76.97
2018-06-10T02:38:28.708Z,77.31
2018-06-10T02:40:56.899Z,77.21
2018-06-10T02:43:25.188Z,77.40
2018-06-10T02:45:53.388Z,77.60
2018-06-10T02:48:21.599Z,76.92
2018-06-10T02:50:49.780Z,76.76
2018-06-10T02:53:17.968Z,76.80
2018-06-10T02:55:46.145Z,77.12
2018-06-10T02:58:14.346Z,76.93
2018-06-10T03:00:42.562Z,76.55
2018-06-10T03:03:10.815Z,76.63
2018-06-10T03:05:39.022Z,77.35
2018-06-10T03:08:07.225Z,76.50
2018-06-10T03:10:35.501Z,76.54
2018-06-10T03:13:03.708Z,76.45
2018-06-10T03:15:31.939Z,76.40
2018-06-10T03:18:00.156Z,76.17
2018-06-10T03:20:28.409Z,76.58
2018-06-10T03:22:56.572Z,76.52
2018-06-10T03:25:24.756Z,76.11
2018-06-10T03:27:52.993Z,76.37
2018-06-10T03:30:21.205Z,76.49
2018-06-10T03:32:49.399Z,76.49
2018-06-10T03:35:17.646Z,76.10
2018-06-10T03:37:46.004Z,75.50
2018-06-10T03:40:14.270Z,75.35
2018-06-10T03:42:42.479Z,75.24
2018-06-10T03:45:10.714Z,75.38
2018-06-10T03:47:38.933Z,76.05
2018-06-10T03:50:07.226Z,75.90
2018-06-10T03:52:35.497Z,75.48
2018-06-10T03:55:03.722Z,76.10
2018-06-10T03:57:31.925Z,75.30
2018-06-10T04:00:00.122Z,75.80
2018-06-10T04:02:28.624Z,75.52
2018-06-10T04:04:56.867Z,74.93
2018-06-10T04:07:25.069Z,74.73
2018-06-10T04:09:53.243Z,74.22
2018-06-10T04:12:21.437Z,74.06
2018-06-10T04:14:49.701Z,72.02
2018-06-10T04:17:17.914Z,70.98
2018-06-10T04:19:46.113Z,68.82
2018-06-10T04:22:14.272Z,65.77
2018-06-10T04:24:42.486Z,62.25
2018-06-10T04:27:10.675Z,61.25
2018-06-10T04:29:38.967Z,64.04
2018-06-10T04:32:07.479Z,66.88
2018-06-10T04:34:35.677Z,68.78
2018-06-10T04:37:03.858Z,70.96
2018-06-10T04:39:32.417Z,71.77
2018-06-10T04:42:00.667Z,72.32
2018-06-10T04:44:28.957Z,69.63
2018-06-10T04:46:57.140Z,63.61
2018-06-10T04:49:25.355Z,58.96
2018-06-10T04:51:53.588Z,55.48
2018-06-10T04:54:22.089Z,55.27
2018-06-10T04:56:50.334Z,55.23
2018-06-10T04:59:21.457Z,53.36
2018-06-10T05:01:50.419Z,51.21
2018-06-10T05:04:18.626Z,49.67
2018-06-10T05:06:47.183Z,49.09
2018-06-10T05:09:15.415Z,49.62
2018-06-10T05:11:43.952Z,49.35
2018-06-10T05:14:12.199Z,47.30
2018-06-10T05:16:40.405Z,50.30
2018-06-10T05:19:08.584Z,50.27
2018-06-10T05:21:37.116Z,50.19
2018-06-10T05:24:05.289Z,50.34
2018-06-10T05:26:33.522Z,53.23
2018-06-10T05:29:01.749Z,56.87
2018-06-10T05:31:30.011Z,58.47
2018-06-10T05:33:58.244Z,59.15
2018-06-10T05:36:26.440Z,60.24
2018-06-10T05:38:54.628Z,59.78
2018-06-10T05:41:22.814Z,57.24
2018-06-10T05:43:50.983Z,55.06
2018-06-10T05:46:19.182Z,53.11
2018-06-10T05:48:47.386Z,55.89
2018-06-10T05:51:15.672Z,57.27
2018-06-10T05:53:43.867Z,59.39
2018-06-10T05:56:12.125Z,60.41
2018-06-10T05:58:40.401Z,61.95
2018-06-10T06:01:08.888Z,62.35
2018-06-10T06:03:37.400Z,63.17
2018-06-10T06:06:05.619Z,62.65
2018-06-10T06:08:33.852Z,62.84
2018-06-10T06:11:02.145Z,62.88
2018-06-10T06:13:30.432Z,62.94
2018-06-10T06:15:58.685Z,63.09
2018-06-10T06:18:26.922Z,63.13
2018-06-10T06:20:55.114Z,62.43
2018-06-10T06:23:23.337Z,61.36
2018-06-10T06:25:51.545Z,60.09
2018-06-10T06:28:19.859Z,60.51
2018-06-10T06:30:48.135Z,59.35
2018-06-10T06:33:16.757Z,58.30
2018-06-10T06:35:45.200Z,57.77
2018-06-10T06:38:13.430Z,57.53
2018-06-10T06:40:41.629Z,57.06
2018-06-10T06:43:09.835Z,55.06
2018-06-10T06:45:38.071Z,55.61
2018-06-10T06:48:06.299Z,55.50
2018-06-10T06:50:34.538Z,55.14
2018-06-10T06:53:02.741Z,54.81
2018-06-10T06:55:30.928Z,54.54
2018-06-10T06:57:59.138Z,55.47
2018-06-10T07:00:27.431Z,55.02
2018-06-10T07:02:56.056Z,56.12
2018-06-10T07:05:24.273Z,55.68
2018-06-10T07:07:52.513Z,55.95
2018-06-10T07:10:20.737Z,55.89
2018-06-10T07:12:49.296Z,56.21
2018-06-10T07:15:17.562Z,55.59
2018-06-10T07:17:45.775Z,55.96
2018-06-10T07:20:14.023Z,56.26
2018-06-10T07:22:42.261Z,56.66
2018-06-10T07:25:10.434Z,55.82
2018-06-10T07:27:38.956Z,54.24
2018-06-10T07:30:07.258Z,53.64
2018-06-10T07:32:35.830Z,53.07
2018-06-10T07:35:04.449Z,54.32
2018-06-10T07:37:32.976Z,55.89
2018-06-10T07:40:01.193Z,56.49
2018-06-10T07:42:29.425Z,56.41
2018-06-10T07:44:57.896Z,56.04
2018-06-10T07:47:26.097Z,56.74
2018-06-10T07:49:54.327Z,56.83
2018-06-10T07:52:22.610Z,55.52
2018-06-10T07:54:50.811Z,55.26
2018-06-10T07:57:18.970Z,53.73
2018-06-10T07:59:47.159Z,52.36
2018-06-10T08:02:15.353Z,51.31
2018-06-10T08:04:43.615Z,50.35
2018-06-10T08:07:12.549Z,49.29
2018-06-10T08:09:40.728Z,48.28
2018-06-10T08:12:08.909Z,48.10
2018-06-10T08:14:37.106Z,48.23
2018-06-10T08:17:05.296Z,49.60
2018-06-10T08:19:33.533Z,50.10
2018-06-10T08:22:01.744Z,49.43
2018-06-10T08:24:29.958Z,49.09
2018-06-10T08:26:58.180Z,49.40
2018-06-10T08:29:26.378Z,49.72
2018-06-10T08:31:54.654Z,50.11
2018-06-10T08:34:22.911Z,49.75
2018-06-10T08:36:51.155Z,49.91
2018-06-10T08:39:19.354Z,50.39
2018-06-10T08:41:47.606Z,50.11
2018-06-10T08:44:15.851Z,50.16
2018-06-10T08:46:44.388Z,50.42
2018-06-10T08:49:12.584Z,49.27
2018-06-10T08:51:41.210Z,48.53
2018-06-10T08:54:09.449Z,48.10
2018-06-10T08:56:37.691Z,47.69
2018-06-10T08:59:05.907Z,47.23
2018-06-10T09:01:34.162Z,46.21
2018-06-10T09:04:02.413Z,45.66
2018-06-10T09:06:30.617Z,45.48
2018-06-10T09:08:58.885Z,45.22
2018-06-10T09:11:27.128Z,45.11
2018-06-10T09:13:55.332Z,45.32
2018-06-10T09:16:23.631Z,45.49
2018-06-10T09:18:52.168Z,45.20
2018-06-10T09:21:20.331Z,45.13
2018-06-10T09:23:48.607Z,44.36
2018-06-10T09:26:16.859Z,43.92
2018-06-10T09:28:45.184Z,43.82
2018-06-10T09:31:13.488Z,44.70
2018-06-10T09:33:41.718Z,44.96
2018-06-10T09:36:09.960Z,44.34
2018-06-10T09:38:38.173Z,44.73
2018-06-10T09:41:06.374Z,44.93
2018-06-10T09:43:34.615Z,43.24
2018-06-10T09:46:02.778Z,42.52
2018-06-10T09:48:31.036Z,42.27
2018-06-10T09:50:59.520Z,41.63
2018-06-10T09:53:28.024Z,41.51
2018-06-10T09:55:56.264Z,41.88
2018-06-10T09:58:24.458Z,42.47
2018-06-10T10:00:53.065Z,42.80
2018-06-10T10:03:21.283Z,41.21
2018-06-10T10:05:49.529Z,40.87
2018-06-10T10:08:17.736Z,42.70
2018-06-10T10:10:46.217Z,43.63
2018-06-10T10:13:14.456Z,43.87
2018-06-10T10:15:42.716Z,43.48
2018-06-10T10:18:10.917Z,43.43
2018-06-10T10:20:39.158Z,43.13
2018-06-10T10:23:07.378Z,42.95
2018-06-10T10:25:36.004Z,42.88
2018-06-10T10:28:04.296Z,42.06
2018-06-10T10:30:32.465Z,42.42
2018-06-10T10:33:00.660Z,42.37
2018-06-10T10:35:28.885Z,41.53
2018-06-10T10:37:57.142Z,41.07
2018-06-10T10:40:25.372Z,41.38
2018-06-10T10:42:53.622Z,41.26
2018-06-10T10:45:22.106Z,41.44
2018-06-10T10:47:50.397Z,41.29
2018-06-10T10:50:18.657Z,41.46
2018-06-10T10:52:46.900Z,41.15
2018-06-10T10:55:15.162Z,41.49
2018-06-10T10:57:43.357Z,40.45
2018-06-10T11:00:11.571Z,41.25
2018-06-10T11:02:39.832Z,40.39
2018-06-10T11:05:07.999Z,40.55
2018-06-10T11:07:36.373Z,40.34
2018-06-10T11:10:04.577Z,39.75
2018-06-10T11:12:33.032Z,40.56
2018-06-10T11:15:01.334Z,40.29
2018-06-10T11:17:29.565Z,39.98
2018-06-10T11:19:57.767Z,40.27
2018-06-10T11:22:26.717Z,39.28
2018-06-10T11:24:54.960Z,39.46
2018-06-10T11:27:23.275Z,39.63
2018-06-10T11:29:51.432Z,39.35
2018-06-10T11:32:26.341Z,40.02
2018-06-10T11:34:54.531Z,39.40
2018-06-10T11:37:22.715Z,40.74
2018-06-10T11:39:51.081Z,38.72
2018-06-10T11:42:19.297Z,36.39
2018-06-10T11:44:47.449Z,35.37
2018-06-10T11:47:15.624Z,36.10
2018-06-10T11:49:43.780Z,35.95
2018-06-10T11:52:12.036Z,36.77
2018-06-10T11:54:40.249Z,37.74
2018-06-10T11:57:08.456Z,38.70
2018-06-10T11:59:36.666Z,39.07
2018-06-10T12:02:04.839Z,39.37
2018-06-10T12:04:33.057Z,39.25
2018-06-10T12:07:01.338Z,39.26
2018-06-10T12:09:29.575Z,39.85
2018-06-10T12:11:57.780Z,40.34
2018-06-10T12:14:25.954Z,40.78
2018-06-10T12:16:54.147Z,40.79
2018-06-10T12:19:22.339Z,41.99
2018-06-10T12:21:50.563Z,44.52
2018-06-10T12:24:18.775Z,46.20
2018-06-10T12:26:47.036Z,47.51
2018-06-10T12:29:15.236Z,52.71
2018-06-10T12:31:43.477Z,56.51
2018-06-10T12:34:11.939Z,60.17
2018-06-10T12:36:40.169Z,62.58
2018-06-10T12:39:08.878Z,64.52
2018-06-10T12:41:37.389Z,67.72
2018-06-10T12:44:05.718Z,67.64
2018-06-10T12:46:33.903Z,67.23
2018-06-10T12:49:02.195Z,63.55
2018-06-10T12:51:30.401Z,62.04
2018-06-10T12:53:58.625Z,60.80
2018-06-10T12:56:26.905Z,60.09
2018-06-10T12:58:55.100Z,55.97
2018-06-10T13:01:23.292Z,53.18
2018-06-10T13:03:51.521Z,50.87
2018-06-10T13:06:19.814Z,50.16
2018-06-10T13:08:48.341Z,50.37
2018-06-10T13:11:16.574Z,49.29
2018-06-10T13:13:44.829Z,49.35
2018-06-10T13:16:13.044Z,49.48
2018-06-10T13:18:41.465Z,49.37
2018-06-10T13:21:09.847Z,49.97
2018-06-10T13:23:38.153Z,50.19
2018-06-10T13:26:06.364Z,50.00
2018-06-10T13:28:34.607Z,50.71
2018-06-10T13:31:02.802Z,51.08
2018-06-10T13:33:31.300Z,50.81
2018-06-10T13:35:59.892Z,50.29
2018-06-10T13:38:28.179Z,50.99
2018-06-10T13:40:56.414Z,52.17
2018-06-10T13:43:24.652Z,52.09
2018-06-10T13:45:52.921Z,50.70
2018-06-10T13:48:21.202Z,49.48
2018-06-10T13:50:49.454Z,49.99
2018-06-10T13:53:17.753Z,51.13
2018-06-10T13:55:46.192Z,51.02
2018-06-10T13:58:14.731Z,51.89
2018-06-10T14:00:43.014Z,52.61
2018-06-10T14:03:11.189Z,54.18
2018-06-10T14:05:39.401Z,54.59
2018-06-10T14:08:07.627Z,55.62
2018-06-10T14:10:42.447Z,55.53
2018-06-10T14:13:10.669Z,56.57
2018-06-10T14:15:38.918Z,56.63
2018-06-10T14:18:07.372Z,57.26
2018-06-10T14:23:10.128Z,58.95
2018-06-10T14:25:38.319Z,58.17
2018-06-10T14:28:07.423Z,57.11
2018-06-10T14:30:35.668Z,55.62
2018-06-10T14:33:03.871Z,56.50
2018-06-10T14:35:32.018Z,57.01
2018-06-10T14:38:00.325Z,56.92
2018-06-10T14:40:28.476Z,57.14
2018-06-10T14:42:56.696Z,57.06
2018-06-10T14:45:24.928Z,57.91
2018-06-10T14:47:53.178Z,58.03
2018-06-10T14:50:21.411Z,59.27
2018-06-10T14:52:49.615Z,59.56
2018-06-10T14:55:17.839Z,63.64
2018-06-10T14:57:46.444Z,66.30
2018-06-10T15:00:14.757Z,66.23
2018-06-10T15:02:42.970Z,66.67
2018-06-10T15:05:11.175Z,64.28
2018-06-10T15:07:39.407Z,64.81
2018-06-10T15:10:07.674Z,68.50
2018-06-10T15:12:35.914Z,73.08
2018-06-10T15:15:04.176Z,77.21
2018-06-10T15:17:32.403Z,80.21
2018-06-10T15:20:00.629Z,85.03
2018-06-10T15:22:28.828Z,87.06
2018-06-10T15:24:57.045Z,88.49
2018-06-10T15:27:25.211Z,88.80
2018-06-10T15:29:53.451Z,89.46
2018-06-10T15:32:21.748Z,90.79
2018-06-10T15:34:49.996Z,89.55
2018-06-10T15:37:18.201Z,88.67
2018-06-10T15:39:46.464Z,86.84
2018-06-10T15:42:15.036Z,86.90
2018-06-10T15:44:43.996Z,86.14
2018-06-10T15:47:12.261Z,85.24
2018-06-10T15:49:40.465Z,84.54
2018-06-10T15:52:08.652Z,83.79
2018-06-10T15:54:36.859Z,81.78
2018-06-10T15:57:05.302Z,78.17
2018-06-10T15:59:33.498Z,75.45
2018-06-10T16:02:02.140Z,76.37
2018-06-10T16:04:30.401Z,76.17
2018-06-10T16:06:58.632Z,77.14
2018-06-10T16:09:26.921Z,77.95
2018-06-10T16:11:55.140Z,78.60
2018-06-10T16:14:23.396Z,75.89
2018-06-10T16:16:51.643Z,72.62
2018-06-10T16:19:20.204Z,74.12
2018-06-10T16:21:48.470Z,73.77
2018-06-10T16:24:16.681Z,74.46
2018-06-10T16:26:44.940Z,76.75
2018-06-10T16:29:13.144Z,75.46
2018-06-10T16:31:41.360Z,77.02
2018-06-10T16:34:09.597Z,77.49
2018-06-10T16:36:37.855Z,77.72
2018-06-10T16:39:09.458Z,76.68
2018-06-10T16:41:37.700Z,75.07
2018-06-10T16:44:05.932Z,75.84
2018-06-10T16:46:34.386Z,74.21
2018-06-10T16:49:02.666Z,73.73
2018-06-10T16:51:30.915Z,74.14
2018-06-10T16:53:59.140Z,73.75
2018-06-10T16:56:27.390Z,73.79
2018-06-10T16:58:55.576Z,74.45
2018-06-10T17:01:23.762Z,73.74
2018-06-10T17:03:51.987Z,75.23
2018-06-10T17:06:20.184Z,76.35
2018-06-10T17:08:48.381Z,76.49
2018-06-10T17:11:16.676Z,76.23
2018-06-10T17:13:44.887Z,77.12
2018-06-10T17:16:13.234Z,77.09
2018-06-10T17:18:41.442Z,77.20
2018-06-10T17:21:09.657Z,76.58
2018-06-10T17:23:37.912Z,77.19
2018-06-10T17:26:06.500Z,77.37
2018-06-10T17:28:34.759Z,77.03
2018-06-10T17:31:03.032Z,77.62
2018-06-10T17:33:31.322Z,78.35
2018-06-10T17:35:59.566Z,78.68
2018-06-10T17:38:27.773Z,79.66
2018-06-10T17:40:56.070Z,79.96
2018-06-10T17:43:24.637Z,78.41
2018-06-10T17:45:52.953Z,78.21
2018-06-10T17:48:22.000Z,77.90
2018-06-10T17:50:50.635Z,77.48
2018-06-10T17:53:18.838Z,75.89
2018-06-10T17:55:47.228Z,75.92
2018-06-10T17:58:15.446Z,75.44
2018-06-10T18:00:43.708Z,76.45
2018-06-10T18:03:11.965Z,75.29
2018-06-10T18:05:40.221Z,76.75
2018-06-10T18:08:08.419Z,77.98
2018-06-10T18:10:36.778Z,75.29
2018-06-10T18:13:05.011Z,75.26
2018-06-10T18:15:33.259Z,75.25
2018-06-10T18:18:01.473Z,75.12
2018-06-10T18:20:29.669Z,76.81
2018-06-10T18:22:57.912Z,77.33
2018-06-10T18:25:26.085Z,77.16
2018-06-10T18:27:54.345Z,77.20
2018-06-10T18:30:22.539Z,77.79
2018-06-10T18:32:50.749Z,78.83
2018-06-10T18:35:18.946Z,79.52
2018-06-10T18:37:47.201Z,77.96
2018-06-10T18:40:15.407Z,78.12
2018-06-10T18:42:43.701Z,79.08
2018-06-10T18:45:11.933Z,80.35
2018-06-10T18:47:40.373Z,80.50
2018-06-10T18:50:08.651Z,79.29
2018-06-10T18:52:36.884Z,79.94
2018-06-10T18:55:05.118Z,78.96
2018-06-10T18:57:33.316Z,78.29
2018-06-10T19:00:01.505Z,78.72
2018-06-10T19:02:29.736Z,78.87
2018-06-10T19:04:58.013Z,79.11
2018-06-10T19:07:26.561Z,80.64
2018-06-10T19:09:54.703Z,80.16
2018-06-10T19:12:22.912Z,79.04
2018-06-10T19:14:51.154Z,78.68
2018-06-10T19:17:19.406Z,80.56
2018-06-10T19:19:47.609Z,82.44
2018-06-10T19:22:15.776Z,82.67
2018-06-10T19:24:43.968Z,84.36
2018-06-10T19:27:12.129Z,85.50
2018-06-10T19:29:40.351Z,86.84
2018-06-10T19:32:08.572Z,86.84
2018-06-10T19:34:36.871Z,87.03
2018-06-10T19:37:06.397Z,86.87
2018-06-10T19:39:34.586Z,88.13
2018-06-10T19:42:02.867Z,87.70
2018-06-10T19:44:31.092Z,87.83
2018-06-10T19:46:59.313Z,87.15
2018-06-10T19:49:27.554Z,86.03
2018-06-10T19:51:55.829Z,85.15
2018-06-10T19:54:23.985Z,84.62
2018-06-10T19:56:52.248Z,86.76
2018-06-10T19:59:20.432Z,85.34
2018-06-10T20:01:48.799Z,86.40
2018-06-10T20:04:16.967Z,85.73
2018-06-10T20:06:45.180Z,84.86
2018-06-10T20:09:13.432Z,85.29
2018-06-10T20:11:41.619Z,84.90
2018-06-10T20:14:09.801Z,84.61
2018-06-10T20:16:38.058Z,84.65
2018-06-10T20:19:06.284Z,84.93
2018-06-10T20:21:34.617Z,84.60
2018-06-10T20:24:02.852Z,85.03
2018-06-10T20:26:31.505Z,85.66
2018-06-10T20:28:59.936Z,86.73
2018-06-10T20:31:28.538Z,86.37
2018-06-10T20:33:56.757Z,86.75
2018-06-10T20:36:25.077Z,87.05
2018-06-10T20:38:53.243Z,85.75
2018-06-10T20:41:21.557Z,83.98
2018-06-10T20:43:49.810Z,84.13
2018-06-10T20:46:17.956Z,83.86
2018-06-10T20:48:46.136Z,84.51
2018-06-10T20:51:14.618Z,83.92
2018-06-10T20:53:42.784Z,84.82
2018-06-10T20:56:10.988Z,84.04
2018-06-10T20:58:39.237Z,84.42
2018-06-10T21:01:07.488Z,84.58
2018-06-10T21:03:35.754Z,84.29
2018-06-10T21:06:03.929Z,84.56
2018-06-10T21:08:32.204Z,84.75
2018-06-10T21:11:00.520Z,84.59
2018-06-10T21:13:28.766Z,84.85
2018-06-10T21:15:57.039Z,83.60
2018-06-10T21:18:25.244Z,83.91
2018-06-10T21:20:53.416Z,83.30
2018-06-10T21:23:21.645Z,83.37
2018-06-10T21:25:49.841Z,83.22
2018-06-10T21:28:18.033Z,84.00
2018-06-10T21:30:46.252Z,83.15
2018-06-10T21:33:14.551Z,83.55
2018-06-10T21:35:42.788Z,83.52
2018-06-10T21:38:11.026Z,82.85
2018-06-10T21:40:39.233Z,84.02
2018-06-10T21:43:07.514Z,84.21
2018-06-10T21:45:35.758Z,83.92
2018-06-10T21:48:04.372Z,85.09
2018-06-10T21:50:32.629Z,83.93
2018-06-10T21:53:01.165Z,84.27
2018-06-10T21:55:29.393Z,83.05
2018-06-10T21:57:57.584Z,82.64
2018-06-10T22:00:27.581Z,81.61
2018-06-10T22:02:55.810Z,81.82
2018-06-10T22:05:24.115Z,80.64
2018-06-10T22:07:52.390Z,81.19
2018-06-10T22:10:20.666Z,80.66
2018-06-10T22:12:48.894Z,81.09
2018-06-10T22:15:17.072Z,80.87
2018-06-10T22:17:45.365Z,80.82
2018-06-10T22:20:13.609Z,80.79
2018-06-10T22:22:41.816Z,81.17
2018-06-10T22:25:10.100Z,80.80
2018-06-10T22:27:38.458Z,80.98
2018-06-10T22:30:06.657Z,81.40
2018-06-10T22:32:35.246Z,81.06
2018-06-10T22:35:03.522Z,81.19
2018-06-10T22:37:31.742Z,81.60
2018-06-10T22:40:00.037Z,81.24
2018-06-10T22:42:35.047Z,81.39
2018-06-10T22:45:03.646Z,81.52
2018-06-10T22:47:31.908Z,82.88
2018-06-10T22:50:00.107Z,82.94
2018-06-10T22:52:28.357Z,83.41
2018-06-10T22:54:56.602Z,83.84
2018-06-10T22:57:24.837Z,84.77
2018-06-10T22:59:53.024Z,84.83
2018-06-10T23:02:21.509Z,84.65
2018-06-10T23:04:49.720Z,85.46
2018-06-10T23:07:18.188Z,85.74
2018-06-10T23:09:46.769Z,84.97
2018-06-10T23:12:14.954Z,85.02
2018-06-10T23:14:43.202Z,85.04
2018-06-10T23:17:11.447Z,84.29
2018-06-10T23:19:39.643Z,84.09
2018-06-10T23:22:07.932Z,84.79
2018-06-10T23:24:36.200Z,83.78
2018-06-10T23:27:04.418Z,84.00
2018-06-10T23:29:32.628Z,83.35
2018-06-10T23:32:00.855Z,83.99
2018-06-10T23:34:29.438Z,84.04
2018-06-10T23:36:57.669Z,84.01
2018-06-10T23:39:25.892Z,83.92
2018-06-10T23:41:54.080Z,84.51
2018-06-10T23:44:22.255Z,83.51
2018-06-10T23:46:50.490Z,83.89
2018-06-10T23:49:18.768Z,84.49
2018-06-10T23:51:47.059Z,84.21
2018-06-10T23:54:15.517Z,84.28
2018-06-10T23:56:43.796Z,83.89
2018-06-10T23:59:12.047Z,84.84
